Time;durP1;ratioP1;P1;durP2;ratioP2;P2;SDS_P1;SDS_P2;PMS_P1;PMS_P2;Temp;Humidity;BMP_temperature;BMP_pressure;BME280_temperature;BME280_humidity;BME280_pressure;Samples;Min_cycle;Max_cycle;Signal;HPM_P1;HPM_P2
2021/01/18 00:01:58;;;;;;;3.50;1.55;;;;;;;;;;4993305;28;20030;-68
2021/01/18 00:04:23;;;;;;;5.00;1.85;;;;;;;;;;5010080;28;20117;-68
2021/01/18 00:06:48;;;;;;;5.63;2.40;;;;;;;;;;5010358;28;20507;-68
2021/01/18 00:09:14;;;;;;;3.83;1.80;;;;;;;;;;4993916;28;20038;-68
2021/01/18 00:11:44;;;;;;;4.22;1.90;;;;;;;;;;4993517;28;20041;-68
2021/01/18 00:14:09;;;;;;;3.97;1.60;;;;;;;;;;5011849;28;20026;-68
2021/01/18 00:16:34;;;;;;;3.78;1.73;;;;;;;;;;5009796;28;20034;-68
2021/01/18 00:19:00;;;;;;;5.18;1.80;;;;;;;;;;5009684;28;20033;-68
2021/01/18 00:21:25;;;;;;;4.95;2.10;;;;;;;;;;5010691;28;20026;-68
2021/01/18 00:23:51;;;;;;;4.00;1.65;;;;;;;;;;4995117;28;20056;-67
2021/01/18 00:26:18;;;;;;;4.68;2.20;;;;;;;;;;4994288;28;20041;-68
2021/01/18 00:28:44;;;;;;;5.00;2.70;;;;;;;;;;5010032;28;20072;-68
2021/01/18 00:31:09;;;;;;;4.07;1.73;;;;;;;;;;5011172;28;20109;-68
2021/01/18 00:33:38;;;;;;;4.32;1.83;;;;;;;;;;5010866;28;20038;-68
2021/01/18 00:36:04;;;;;;;3.83;2.03;;;;;;;;;;5003988;28;20549;-68
2021/01/18 00:38:29;;;;;;;3.60;2.13;;;;;;;;;;5020767;28;20541;-67
2021/01/18 00:40:56;;;;;;;6.53;1.73;;;;;;;;;;5010991;28;20061;-68
2021/01/18 00:43:21;;;;;;;3.78;2.03;;;;;;;;;;4978644;28;20032;-68
2021/01/18 00:45:47;;;;;;;4.15;1.60;;;;;;;;;;5016172;28;20053;-68
2021/01/18 00:48:12;;;;;;;4.55;1.95;;;;;;;;;;4994723;28;20040;-68
2021/01/18 00:50:38;;;;;;;3.72;1.95;;;;;;;;;;4994359;28;20073;-68
2021/01/18 00:53:03;;;;;;;4.22;2.00;;;;;;;;;;5010986;28;20061;-68
2021/01/18 00:55:29;;;;;;;3.65;1.60;;;;;;;;;;5010428;28;20065;-68
2021/01/18 00:57:54;;;;;;;4.85;1.83;;;;;;;;;;5010563;28;20095;-68
2021/01/18 01:00:24;;;;;;;4.97;2.22;;;;;;;;;;4993319;28;20427;-68
2021/01/18 01:02:50;;;;;;;3.42;1.75;;;;;;;;;;5024042;28;20490;-68
2021/01/18 01:05:17;;;;;;;5.57;2.10;;;;;;;;;;5015456;28;20049;-68
2021/01/18 01:07:44;;;;;;;5.10;2.25;;;;;;;;;;5010557;28;20050;-68
2021/01/18 01:10:14;;;;;;;4.50;2.63;;;;;;;;;;4999748;28;20507;-68
2021/01/18 01:12:40;;;;;;;4.35;2.60;;;;;;;;;;5012286;28;20026;-68
2021/01/18 01:15:08;;;;;;;5.05;2.53;;;;;;;;;;4994059;28;20061;-68
2021/01/18 01:17:41;;;;;;;5.85;2.30;;;;;;;;;;5010722;28;20025;-68
2021/01/18 01:20:09;;;;;;;7.38;2.72;;;;;;;;;;4978558;28;20503;-68
2021/01/18 01:22:35;;;;;;;5.63;2.30;;;;;;;;;;5010750;28;20041;-68
2021/01/18 01:25:00;;;;;;;3.83;2.00;;;;;;;;;;5006538;28;20041;-68
2021/01/18 01:27:25;;;;;;;7.35;2.72;;;;;;;;;;5029680;28;20079;-68
2021/01/18 01:29:51;;;;;;;4.15;2.22;;;;;;;;;;5028728;28;20099;-68
2021/01/18 01:32:16;;;;;;;4.93;2.25;;;;;;;;;;5028341;28;20396;-68
2021/01/18 01:34:42;;;;;;;3.72;2.10;;;;;;;;;;5013107;28;20049;-68
2021/01/18 01:37:07;;;;;;;4.32;2.10;;;;;;;;;;5024095;28;20107;-68
2021/01/18 01:39:32;;;;;;;5.88;2.40;;;;;;;;;;5014962;28;20427;-68
2021/01/18 01:41:58;;;;;;;4.47;2.25;;;;;;;;;;5035294;28;20037;-68
2021/01/18 01:44:23;;;;;;;5.50;2.70;;;;;;;;;;5033514;28;20029;-68
2021/01/18 01:46:49;;;;;;;5.05;2.35;;;;;;;;;;5034330;28;20373;-68
2021/01/18 01:49:14;;;;;;;6.68;2.20;;;;;;;;;;5017100;28;20086;-68
2021/01/18 01:51:40;;;;;;;4.43;2.53;;;;;;;;;;5017353;28;20033;-68
2021/01/18 01:54:05;;;;;;;8.23;3.08;;;;;;;;;;5027720;28;20026;-68
2021/01/18 01:56:31;;;;;;;3.58;1.90;;;;;;;;;;4997640;28;20131;-68
2021/01/18 01:58:56;;;;;;;5.90;2.22;;;;;;;;;;5013942;28;20060;-68
2021/01/18 02:01:21;;;;;;;4.10;2.00;;;;;;;;;;5013862;28;20041;-68
2021/01/18 02:03:48;;;;;;;5.78;3.17;;;;;;;;;;4997189;28;20150;-68
2021/01/18 02:06:16;;;;;;;5.80;2.67;;;;;;;;;;5014545;28;20033;-68
2021/01/18 02:08:41;;;;;;;4.63;2.33;;;;;;;;;;5014302;28;20442;-68
2021/01/18 02:11:07;;;;;;;4.63;2.05;;;;;;;;;;4977789;28;20064;-68
2021/01/18 02:13:41;;;;;;;4.72;2.50;;;;;;;;;;4978543;28;20404;-68
2021/01/18 02:16:22;;;;;;;4.15;2.50;;;;;;;;;;4994972;28;20385;-68
2021/01/18 02:18:54;;;;;;;4.75;2.13;;;;;;;;;;5024207;28;20039;-68
2021/01/18 02:21:41;;;;;;;4.57;2.38;;;;;;;;;;5034231;28;20044;-68
2021/01/18 02:24:20;;;;;;;5.68;2.17;;;;;;;;;;5029645;28;20057;-68
2021/01/18 02:26:54;;;;;;;5.75;2.45;;;;;;;;;;5013852;28;20038;-68
2021/01/18 02:29:57;;;;;;;5.70;2.53;;;;;;;;;;5015961;28;20125;-68
2021/01/18 02:33:00;;;;;;;5.00;2.42;;;;;;;;;;5013097;28;20041;-68
2021/01/18 02:35:43;;;;;;;4.65;2.30;;;;;;;;;;5013241;28;20049;-68
2021/01/18 02:38:30;;;;;;;5.68;2.50;;;;;;;;;;5022974;28;20030;-68
2021/01/18 02:41:03;;;;;;;6.00;3.30;;;;;;;;;;5015092;28;20045;-68
2021/01/18 02:43:50;;;;;;;5.65;2.80;;;;;;;;;;4996587;28;20496;-68
2021/01/18 02:46:19;;;;;;;5.28;2.45;;;;;;;;;;4997040;28;20057;-68
2021/01/18 02:48:45;;;;;;;4.28;2.45;;;;;;;;;;4995924;28;20049;-68
2021/01/18 02:51:11;;;;;;;5.00;2.85;;;;;;;;;;4996389;28;20034;-68
2021/01/18 02:53:40;;;;;;;6.07;2.90;;;;;;;;;;5013072;28;20480;-68
2021/01/18 02:56:06;;;;;;;5.05;2.65;;;;;;;;;;5014019;28;20034;-68
2021/01/18 02:58:31;;;;;;;7.88;3.63;;;;;;;;;;5016236;28;20041;-68
2021/01/18 03:01:17;;;;;;;4.85;2.33;;;;;;;;;;5014093;28;20504;-68
2021/01/18 03:03:52;;;;;;;6.15;2.50;;;;;;;;;;4978350;28;20039;-68
2021/01/18 03:06:33;;;;;;;4.43;2.53;;;;;;;;;;4977633;28;20366;-68
2021/01/18 03:09:02;;;;;;;5.13;2.70;;;;;;;;;;4977759;28;20441;-68
2021/01/18 03:11:38;;;;;;;5.20;2.80;;;;;;;;;;4988661;28;20038;-68
2021/01/18 03:14:14;;;;;;;5.03;2.20;;;;;;;;;;4996081;28;20096;-68
2021/01/18 03:16:41;;;;;;;5.78;2.78;;;;;;;;;;5012743;28;20064;-68
2021/01/18 03:19:07;;;;;;;5.85;2.58;;;;;;;;;;4996342;28;20025;-68
2021/01/18 03:21:32;;;;;;;6.20;2.78;;;;;;;;;;4996164;28;20034;-68
2021/01/18 03:23:58;;;;;;;6.35;2.97;;;;;;;;;;5011992;28;20096;-68
2021/01/18 03:26:25;;;;;;;5.35;2.65;;;;;;;;;;5013140;28;20037;-68
2021/01/18 03:28:50;;;;;;;5.05;2.25;;;;;;;;;;4996041;28;20034;-68
2021/01/18 03:31:16;;;;;;;6.57;2.35;;;;;;;;;;4995698;28;20052;-68
2021/01/18 03:33:41;;;;;;;6.60;2.50;;;;;;;;;;4997060;28;20460;-68
2021/01/18 03:36:06;;;;;;;5.40;2.83;;;;;;;;;;5013214;28;20030;-68
2021/01/18 03:38:32;;;;;;;5.72;2.75;;;;;;;;;;5028229;28;20046;-68
2021/01/18 03:40:57;;;;;;;5.30;2.75;;;;;;;;;;5030435;28;20033;-68
2021/01/18 03:43:23;;;;;;;5.53;2.50;;;;;;;;;;5008702;28;20428;-68
2021/01/18 03:45:48;;;;;;;5.82;2.38;;;;;;;;;;5011922;28;20026;-68
2021/01/18 03:48:14;;;;;;;6.03;2.83;;;;;;;;;;5012283;28;20045;-68
2021/01/18 03:50:40;;;;;;;5.38;2.30;;;;;;;;;;4995641;28;20026;-68
2021/01/18 03:53:06;;;;;;;6.72;2.80;;;;;;;;;;5011700;28;20396;-68
2021/01/18 03:55:31;;;;;;;4.47;2.50;;;;;;;;;;5004510;28;20029;-68
2021/01/18 03:57:57;;;;;;;6.55;2.50;;;;;;;;;;5031357;28;20060;-68
2021/01/18 04:00:29;;;;;;;4.38;2.50;;;;;;;;;;5015111;28;20033;-68
2021/01/18 04:02:54;;;;;;;5.05;2.58;;;;;;;;;;4996432;28;20073;-68
2021/01/18 04:05:20;;;;;;;3.92;2.05;;;;;;;;;;4980362;28;20045;-68
2021/01/18 04:07:46;;;;;;;5.95;2.58;;;;;;;;;;5012016;28;20034;-68
2021/01/18 04:10:13;;;;;;;7.60;2.88;;;;;;;;;;5011488;28;20036;-68
2021/01/18 04:12:43;;;;;;;5.85;2.42;;;;;;;;;;4979410;28;20041;-68
2021/01/18 04:15:09;;;;;;;5.32;2.78;;;;;;;;;;4995242;28;20061;-68
2021/01/18 04:17:35;;;;;;;6.00;2.90;;;;;;;;;;5011471;28;20109;-68
2021/01/18 04:20:00;;;;;;;4.65;2.35;;;;;;;;;;4995074;28;20041;-68
2021/01/18 04:22:26;;;;;;;6.45;3.65;;;;;;;;;;5011466;28;20396;-68
2021/01/18 04:24:51;;;;;;;5.57;2.67;;;;;;;;;;5010582;28;20038;-68
2021/01/18 04:27:17;;;;;;;6.03;2.80;;;;;;;;;;4994754;28;20042;-68
2021/01/18 04:29:42;;;;;;;6.30;2.70;;;;;;;;;;4995351;28;20034;-68
2021/01/18 04:32:08;;;;;;;4.50;2.20;;;;;;;;;;5010844;28;20041;-68
2021/01/18 04:34:33;;;;;;;4.97;2.63;;;;;;;;;;5011980;28;20034;-68
2021/01/18 04:37:00;;;;;;;5.63;2.72;;;;;;;;;;4981539;28;20040;-68
2021/01/18 04:39:25;;;;;;;6.53;3.08;;;;;;;;;;5003933;28;20041;-68
2021/01/18 04:41:50;;;;;;;6.18;2.67;;;;;;;;;;5010968;28;20400;-68
2021/01/18 04:44:16;;;;;;;6.60;2.78;;;;;;;;;;4994479;28;20388;-68
2021/01/18 04:46:43;;;;;;;6.22;3.30;;;;;;;;;;4994900;28;20052;-68
2021/01/18 04:49:09;;;;;;;5.50;2.35;;;;;;;;;;4994748;28;20034;-68
2021/01/18 04:51:48;;;;;;;4.40;2.30;;;;;;;;;;5010866;28;20492;-68
2021/01/18 04:54:18;;;;;;;6.63;2.88;;;;;;;;;;5010718;28;20068;-68
2021/01/18 04:57:01;;;;;;;4.93;3.03;;;;;;;;;;5027496;28;20060;-68
2021/01/18 04:59:28;;;;;;;4.95;3.17;;;;;;;;;;5031460;28;20479;-68
2021/01/18 05:01:53;;;;;;;7.35;2.53;;;;;;;;;;5022684;28;20116;-68
2021/01/18 05:04:24;;;;;;;6.43;2.97;;;;;;;;;;4995339;28;20048;-68
2021/01/18 05:06:49;;;;;;;5.47;3.13;;;;;;;;;;4994535;28;20026;-68
2021/01/18 05:09:19;;;;;;;6.80;2.67;;;;;;;;;;4994823;28;20373;-68
2021/01/18 05:11:48;;;;;;;5.65;3.10;;;;;;;;;;5010380;28;20037;-68
2021/01/18 05:14:14;;;;;;;6.13;3.13;;;;;;;;;;5010421;28;20108;-68
2021/01/18 05:16:39;;;;;;;6.53;2.75;;;;;;;;;;5010808;28;20562;-68
2021/01/18 05:19:09;;;;;;;5.35;3.38;;;;;;;;;;4977939;28;20084;-68
2021/01/18 05:21:47;;;;;;;5.53;2.80;;;;;;;;;;5012424;28;20590;-68
2021/01/18 05:24:13;;;;;;;5.30;2.45;;;;;;;;;;4996033;28;20038;-68
2021/01/18 05:26:39;;;;;;;6.88;2.63;;;;;;;;;;5006295;28;20387;-68
2021/01/18 05:29:05;;;;;;;6.03;2.90;;;;;;;;;;5013855;28;20049;-68
2021/01/18 05:31:31;;;;;;;7.10;3.85;;;;;;;;;;5016184;28;20068;-68
2021/01/18 05:34:05;;;;;;;6.63;2.90;;;;;;;;;;5011690;28;20038;-68
2021/01/18 05:36:52;;;;;;;6.10;2.70;;;;;;;;;;5024741;28;20033;-68
2021/01/18 05:39:19;;;;;;;4.63;2.70;;;;;;;;;;5008542;28;20405;-68
2021/01/18 05:41:49;;;;;;;5.65;2.55;;;;;;;;;;5010616;28;20083;-68
2021/01/18 05:44:14;;;;;;;5.65;3.00;;;;;;;;;;5012741;28;20100;-68
2021/01/18 05:46:44;;;;;;;7.18;3.40;;;;;;;;;;5010366;28;20396;-68
2021/01/18 05:49:13;;;;;;;5.32;2.83;;;;;;;;;;4993921;28;20041;-68
2021/01/18 05:51:39;;;;;;;5.20;2.28;;;;;;;;;;5010604;28;20038;-68
2021/01/18 05:54:05;;;;;;;6.70;3.15;;;;;;;;;;4993612;28;20044;-68
2021/01/18 05:56:43;;;;;;;6.63;3.63;;;;;;;;;;5009235;28;20030;-68
2021/01/18 05:59:15;;;;;;;6.13;2.47;;;;;;;;;;4993589;28;20052;-68
2021/01/18 06:01:40;;;;;;;5.20;2.78;;;;;;;;;;4997698;28;20105;-68
2021/01/18 06:04:16;;;;;;;5.25;2.65;;;;;;;;;;5029766;28;20104;-68
2021/01/18 06:06:42;;;;;;;7.88;2.75;;;;;;;;;;5013972;28;20033;-68
2021/01/18 06:09:08;;;;;;;7.13;3.10;;;;;;;;;;5029671;28;20048;-68
2021/01/18 06:11:33;;;;;;;5.20;3.10;;;;;;;;;;5028096;28;20033;-69
2021/01/18 06:14:00;;;;;;;6.25;2.63;;;;;;;;;;5010058;28;20378;-68
2021/01/18 06:16:25;;;;;;;6.43;2.58;;;;;;;;;;5000962;28;20184;-68
2021/01/18 06:19:02;;;;;;;8.02;2.83;;;;;;;;;;4991211;28;20037;-68
2021/01/18 06:21:38;;;;;;;8.68;3.13;;;;;;;;;;4993344;28;20030;-68
2021/01/18 06:24:17;;;;;;;8.65;3.10;;;;;;;;;;4994555;28;20038;-68
2021/01/18 06:26:43;;;;;;;9.13;3.20;;;;;;;;;;5010858;28;20108;-68
2021/01/18 06:29:08;;;;;;;10.68;3.58;;;;;;;;;;4980294;28;20055;-68
2021/01/18 06:31:46;;;;;;;38.47;31.27;;;;;;;;;;5013412;28;20499;-68
2021/01/18 06:34:26;;;;;;;28.33;21.05;;;;;;;;;;5013514;28;20030;-68
2021/01/18 06:36:51;;;;;;;21.35;16.20;;;;;;;;;;5002178;28;20048;-68
2021/01/18 06:39:17;;;;;;;18.77;13.25;;;;;;;;;;4996032;28;20042;-68
2021/01/18 06:41:42;;;;;;;17.33;11.10;;;;;;;;;;4998676;28;20060;-68
2021/01/18 06:44:08;;;;;;;17.15;10.70;;;;;;;;;;5014029;28;20514;-68
2021/01/18 06:46:34;;;;;;;15.95;10.35;;;;;;;;;;5012570;28;20030;-68
2021/01/18 06:48:59;;;;;;;16.67;10.15;;;;;;;;;;5012717;28;20062;-68
2021/01/18 06:51:26;;;;;;;14.10;9.93;;;;;;;;;;4979744;28;20033;-68
2021/01/18 06:53:53;;;;;;;16.98;9.80;;;;;;;;;;5012508;28;20026;-68
2021/01/18 06:56:21;;;;;;;18.40;9.25;;;;;;;;;;5012418;28;20152;-68
2021/01/18 06:59:11;;;;;;;15.27;8.27;;;;;;;;;;5013492;28;20030;-68
2021/01/18 07:01:38;;;;;;;14.35;8.50;;;;;;;;;;5013626;28;20030;-68
2021/01/18 07:04:05;;;;;;;15.20;8.48;;;;;;;;;;4996170;28;20037;-68
2021/01/18 07:06:32;;;;;;;12.05;7.07;;;;;;;;;;5012474;28;20050;-68
2021/01/18 07:08:59;;;;;;;14.55;7.90;;;;;;;;;;5011662;28;20034;-68
2021/01/18 07:11:25;;;;;;;10.60;6.88;;;;;;;;;;4995957;28;20128;-68
2021/01/18 07:13:50;;;;;;;14.57;7.80;;;;;;;;;;4996926;28;20454;-68
2021/01/18 07:16:20;;;;;;;12.60;7.03;;;;;;;;;;4995549;28;20057;-68
2021/01/18 07:18:56;;;;;;;15.10;6.07;;;;;;;;;;5017856;28;20361;-68
2021/01/18 07:21:22;;;;;;;10.75;5.97;;;;;;;;;;4996333;28;20034;-68
2021/01/18 07:23:55;;;;;;;7.55;4.97;;;;;;;;;;4995710;28;20040;-68
2021/01/18 07:26:58;;;;;;;10.73;5.55;;;;;;;;;;4996173;28;20040;-68
2021/01/18 07:29:25;;;;;;;12.63;5.00;;;;;;;;;;5009434;28;20054;-68
2021/01/18 07:31:55;;;;;;;9.10;4.53;;;;;;;;;;5011973;28;20113;-68
2021/01/18 07:34:21;;;;;;;10.18;4.40;;;;;;;;;;5013297;28;20488;-68
2021/01/18 07:36:47;;;;;;;8.50;4.20;;;;;;;;;;5013181;28;20038;-68
2021/01/18 07:39:22;;;;;;;6.72;4.22;;;;;;;;;;5015509;28;20395;-68
2021/01/18 07:41:48;;;;;;;7.00;3.95;;;;;;;;;;5033081;28;20034;-68
2021/01/18 07:44:30;;;;;;;6.40;3.05;;;;;;;;;;5014902;28;20364;-68
2021/01/18 07:47:00;;;;;;;7.68;4.00;;;;;;;;;;5015502;28;20108;-68
2021/01/18 07:49:32;;;;;;;8.45;3.67;;;;;;;;;;5031310;28;20040;-68
2021/01/18 07:52:30;;;;;;;8.07;4.18;;;;;;;;;;5031519;28;20076;-68
2021/01/18 07:54:56;;;;;;;5.10;3.10;;;;;;;;;;4988401;28;20045;-68
2021/01/18 07:57:38;;;;;;;8.48;3.65;;;;;;;;;;5031063;28;20029;-68
2021/01/18 08:00:24;;;;;;;6.45;4.13;;;;;;;;;;5031327;28;20082;-68
2021/01/18 08:02:53;;;;;;;7.53;3.20;;;;;;;;;;5020170;28;20541;-68
2021/01/18 08:05:26;;;;;;;8.07;3.63;;;;;;;;;;5012514;28;20050;-68
2021/01/18 08:08:10;;;;;;;8.48;3.60;;;;;;;;;;4995384;28;20211;-68
2021/01/18 08:10:54;;;;;;;6.45;3.13;;;;;;;;;;5020078;28;20034;-68
2021/01/18 08:13:47;;;;;;;6.63;3.00;;;;;;;;;;4993247;28;20057;-68
2021/01/18 08:16:22;;;;;;;5.15;2.80;;;;;;;;;;5009549;28;20105;-68
2021/01/18 08:18:52;;;;;;;5.10;2.38;;;;;;;;;;5012436;28;20034;-68
2021/01/18 08:21:33;;;;;;;6.00;2.67;;;;;;;;;;5011563;28;20038;-68
2021/01/18 08:24:07;;;;;;;5.85;2.40;;;;;;;;;;5012705;28;20034;-68
2021/01/18 08:26:57;;;;;;;6.47;2.53;;;;;;;;;;5012441;28;20069;-68
2021/01/18 08:29:44;;;;;;;7.20;2.83;;;;;;;;;;5011978;28;20080;-68
2021/01/18 08:32:31;;;;;;;8.02;2.72;;;;;;;;;;5014435;28;20037;-68
2021/01/18 08:34:57;;;;;;;6.35;2.35;;;;;;;;;;5009866;28;20165;-68
2021/01/18 08:37:24;;;;;;;5.45;2.45;;;;;;;;;;4994204;28;20042;-68
2021/01/18 08:39:56;;;;;;;4.72;2.40;;;;;;;;;;5009254;28;20038;-68
2021/01/18 08:42:48;;;;;;;;;;;;;;;;;;5009011;28;20043;-68
2021/01/18 08:45:21;;;;;;;4.88;2.35;;;;;;;;;;5008029;28;19920;-68
2021/01/18 08:47:54;;;;;;;3.95;2.25;;;;;;;;;;5008776;28;20026;-68
2021/01/18 08:50:29;;;;;;;5.13;2.42;;;;;;;;;;5008504;28;20029;-68
2021/01/18 08:52:56;;;;;;;5.13;2.10;;;;;;;;;;5008296;28;20054;-68
2021/01/18 08:55:28;;;;;;;4.22;1.80;;;;;;;;;;4992132;28;20081;-67
2021/01/18 08:58:06;;;;;;;4.18;1.92;;;;;;;;;;5010286;28;20040;-68
2021/01/18 09:00:47;;;;;;;5.97;2.20;;;;;;;;;;5008672;28;20030;-68
2021/01/18 09:03:19;;;;;;;5.72;1.90;;;;;;;;;;5009374;28;20037;-68
2021/01/18 09:05:49;;;;;;;;;;;;;;;;;;4993099;28;20399;-68
2021/01/18 09:08:20;;;;;;;4.97;1.98;;;;;;;;;;5008441;28;20326;-68
2021/01/18 09:10:57;;;;;;;5.00;1.77;;;;;;;;;;4992301;28;20480;-68
2021/01/18 09:13:26;;;;;;;4.47;1.67;;;;;;;;;;5009014;28;20045;-68
2021/01/18 09:15:53;;;;;;;6.03;2.15;;;;;;;;;;5008774;28;20025;-68
2021/01/18 09:18:19;;;;;;;5.35;1.98;;;;;;;;;;4992812;28;20140;-68
2021/01/18 09:20:44;;;;;;;5.18;2.25;;;;;;;;;;4992233;28;20116;-68
2021/01/18 09:23:11;;;;;;;5.43;2.17;;;;;;;;;;5008887;28;20230;-68
2021/01/18 09:25:39;;;;;;;5.22;2.08;;;;;;;;;;4992697;28;20030;-67
2021/01/18 09:28:09;;;;;;;4.50;1.88;;;;;;;;;;5008238;28;20056;-68
2021/01/18 09:30:43;;;;;;;3.97;2.10;;;;;;;;;;5008865;28;20036;-68
2021/01/18 09:33:11;;;;;;;4.75;2.10;;;;;;;;;;4991609;28;20041;-68
2021/01/18 09:35:43;;;;;;;4.85;1.80;;;;;;;;;;5008515;28;20034;-68
2021/01/18 09:38:10;;;;;;;5.93;1.92;;;;;;;;;;5007700;28;20546;-68
2021/01/18 09:40:38;;;;;;;5.80;1.88;;;;;;;;;;5010204;28;20084;-68
2021/01/18 09:43:08;;;;;;;4.10;1.88;;;;;;;;;;5011523;28;20045;-68
2021/01/18 09:45:36;;;;;;;3.60;1.77;;;;;;;;;;5007010;28;20026;-67
2021/01/18 09:48:07;;;;;;;4.45;1.83;;;;;;;;;;5008821;28;20053;-67
2021/01/18 09:50:36;;;;;;;4.38;1.92;;;;;;;;;;5010202;28;20036;-68
2021/01/18 09:53:09;;;;;;;4.05;1.73;;;;;;;;;;5008611;28;20509;-68
2021/01/18 09:55:41;;;;;;;3.55;1.80;;;;;;;;;;5008378;28;20026;-68
2021/01/18 09:58:17;;;;;;;4.95;1.90;;;;;;;;;;5007110;28;20110;-68
2021/01/18 10:00:43;;;;;;;4.45;1.77;;;;;;;;;;5007471;28;20053;-68
2021/01/18 10:03:08;;;;;;;4.00;1.77;;;;;;;;;;4997940;28;20050;-68
2021/01/18 10:05:41;;;;;;;3.42;1.20;;;;;;;;;;4996759;28;20480;-68
2021/01/18 10:08:16;;;;;;;4.63;1.73;;;;;;;;;;4995796;28;20491;-68
2021/01/18 10:10:49;;;;;;;5.40;1.85;;;;;;;;;;5015143;28;20076;-68
2021/01/18 10:13:17;;;;;;;4.22;1.40;;;;;;;;;;5017216;28;20026;-67
2021/01/18 10:15:42;;;;;;;6.00;2.00;;;;;;;;;;5018860;28;20044;-69
2021/01/18 10:18:29;;;;;;;3.70;1.67;;;;;;;;;;5013719;28;20037;-68
2021/01/18 10:20:55;;;;;;;5.55;1.40;;;;;;;;;;5015790;28;20029;-67
2021/01/18 10:23:20;;;;;;;3.58;1.40;;;;;;;;;;5018230;28;20040;-67
2021/01/18 10:25:46;;;;;;;4.72;1.80;;;;;;;;;;5013285;28;20037;-67
2021/01/18 10:28:17;;;;;;;3.22;1.50;;;;;;;;;;5019389;28;20033;-67
2021/01/18 10:30:42;;;;;;;3.80;1.65;;;;;;;;;;5019540;28;20030;-67
2021/01/18 10:33:14;;;;;;;2.85;1.33;;;;;;;;;;5014423;28;20372;-67
2021/01/18 10:35:40;;;;;;;3.40;1.10;;;;;;;;;;5013837;28;20096;-67
2021/01/18 10:38:14;;;;;;;5.72;2.25;;;;;;;;;;4996902;28;20030;-67
2021/01/18 10:40:40;;;;;;;4.75;2.00;;;;;;;;;;5014623;28;20072;-67
2021/01/18 10:43:06;;;;;;;3.47;1.02;;;;;;;;;;4996587;28;20468;-67
2021/01/18 10:45:31;;;;;;;5.78;1.67;;;;;;;;;;5012812;28;20041;-67
2021/01/18 10:48:00;;;;;;;4.35;1.42;;;;;;;;;;5013026;28;20036;-67
2021/01/18 10:50:30;;;;;;;4.57;2.17;;;;;;;;;;5012754;28;20038;-67
2021/01/18 10:53:05;;;;;;;4.78;1.98;;;;;;;;;;5005912;28;20021;-67
2021/01/18 10:55:31;;;;;;;7.18;1.55;;;;;;;;;;5014497;28;20495;-67
2021/01/18 10:57:56;;;;;;;5.35;1.55;;;;;;;;;;4996027;28;20032;-67
2021/01/18 11:00:28;;;;;;;3.08;1.17;;;;;;;;;;5013029;28;20041;-67
2021/01/18 11:02:58;;;;;;;4.40;1.42;;;;;;;;;;5009992;28;20063;-67
2021/01/18 11:05:32;;;;;;;3.42;1.50;;;;;;;;;;5000134;28;20048;-67
2021/01/18 11:08:05;;;;;;;4.20;2.03;;;;;;;;;;5032349;28;20029;-67
2021/01/18 11:10:31;;;;;;;4.97;2.10;;;;;;;;;;5029520;28;20029;-67
2021/01/18 11:12:58;;;;;;;5.57;2.58;;;;;;;;;;4995500;28;20030;-67
2021/01/18 11:15:31;;;;;;;3.40;1.75;;;;;;;;;;5011652;28;20038;-67
2021/01/18 11:17:56;;;;;;;5.65;1.48;;;;;;;;;;5015047;28;20034;-67
2021/01/18 11:20:23;;;;;;;4.07;1.90;;;;;;;;;;5026261;28;20136;-67
2021/01/18 11:22:48;;;;;;;3.13;1.30;;;;;;;;;;5012362;28;20069;-67
2021/01/18 11:25:14;;;;;;;3.28;1.40;;;;;;;;;;5012507;28;20149;-67
2021/01/18 11:27:39;;;;;;;4.40;1.30;;;;;;;;;;5011682;28;20097;-67
2021/01/18 11:30:05;;;;;;;4.30;1.63;;;;;;;;;;5011926;28;20029;-67
2021/01/18 11:32:31;;;;;;;4.55;1.33;;;;;;;;;;5027370;28;20040;-67
2021/01/18 11:34:56;;;;;;;4.13;1.00;;;;;;;;;;5025247;28;20108;-67
2021/01/18 11:37:21;;;;;;;3.42;1.20;;;;;;;;;;5027045;28;20037;-67
2021/01/18 11:39:47;;;;;;;7.00;1.85;;;;;;;;;;5033010;28;20391;-67
2021/01/18 11:42:12;;;;;;;3.47;1.40;;;;;;;;;;5027139;28;20172;-67
2021/01/18 11:44:38;;;;;;;3.00;1.20;;;;;;;;;;5032726;28;20030;-67
2021/01/18 11:47:03;;;;;;;3.75;2.00;;;;;;;;;;5032947;28;20041;-67
2021/01/18 11:49:28;;;;;;;4.60;1.60;;;;;;;;;;5027878;28;20042;-67
2021/01/18 11:52:00;;;;;;;4.22;1.67;;;;;;;;;;4995531;28;20494;-68
2021/01/18 11:54:25;;;;;;;3.80;1.73;;;;;;;;;;5013621;28;20060;-67
2021/01/18 11:56:51;;;;;;;4.38;1.60;;;;;;;;;;5011429;28;20038;-67
2021/01/18 11:59:16;;;;;;;5.50;2.05;;;;;;;;;;5012013;28;20041;-67
2021/01/18 12:01:45;;;;;;;4.03;1.50;;;;;;;;;;5012329;28;20042;-67
2021/01/18 12:04:10;;;;;;;5.72;1.75;;;;;;;;;;5007914;28;20377;-67
2021/01/18 12:06:36;;;;;;;4.32;1.73;;;;;;;;;;4991954;28;20038;-67
2021/01/18 12:09:02;;;;;;;8.18;2.33;;;;;;;;;;4976009;28;20117;-67
2021/01/18 12:11:27;;;;;;;5.28;1.88;;;;;;;;;;5003499;28;20044;-67
2021/01/18 12:13:53;;;;;;;5.90;2.10;;;;;;;;;;5011872;28;20034;-67
2021/01/18 12:16:23;;;;;;;4.57;2.13;;;;;;;;;;5016146;28;20507;-67
2021/01/18 12:18:48;;;;;;;4.30;1.70;;;;;;;;;;5011431;28;20038;-67
2021/01/18 12:21:13;;;;;;;3.00;1.42;;;;;;;;;;5011228;28;20431;-68
2021/01/18 12:23:39;;;;;;;4.85;1.52;;;;;;;;;;5010272;28;20148;-67
2021/01/18 12:26:04;;;;;;;6.15;1.70;;;;;;;;;;5012116;28;20030;-67
2021/01/18 12:28:30;;;;;;;4.13;1.55;;;;;;;;;;5014399;28;20029;-67
2021/01/18 12:30:55;;;;;;;4.68;1.80;;;;;;;;;;4997406;28;20042;-67
2021/01/18 12:33:20;;;;;;;4.63;1.45;;;;;;;;;;4992174;28;20034;-67
2021/01/18 12:35:46;;;;;;;3.42;1.15;;;;;;;;;;4998926;28;20058;-67
2021/01/18 12:38:11;;;;;;;4.25;1.60;;;;;;;;;;5030880;28;20462;-67
2021/01/18 12:40:37;;;;;;;6.85;1.73;;;;;;;;;;5029365;28;20464;-67
2021/01/18 12:43:02;;;;;;;7.68;1.75;;;;;;;;;;4993717;28;20026;-67
2021/01/18 12:45:29;;;;;;;4.25;1.48;;;;;;;;;;5009313;28;20041;-67
2021/01/18 12:47:54;;;;;;;3.47;1.40;;;;;;;;;;5007239;28;20033;-67
2021/01/18 12:50:20;;;;;;;4.25;2.03;;;;;;;;;;4992692;28;20042;-67
2021/01/18 12:52:46;;;;;;;4.88;2.08;;;;;;;;;;5010401;28;20029;-67
2021/01/18 12:55:11;;;;;;;6.63;1.75;;;;;;;;;;5009722;28;20033;-67
2021/01/18 12:57:36;;;;;;;4.03;1.80;;;;;;;;;;5008590;28;20038;-67
2021/01/18 13:00:04;;;;;;;4.50;1.70;;;;;;;;;;5010210;28;20044;-67
2021/01/18 13:02:30;;;;;;;3.70;1.60;;;;;;;;;;5009625;28;20026;-67
2021/01/18 13:04:55;;;;;;;4.13;1.38;;;;;;;;;;5010106;28;20091;-67
2021/01/18 13:07:20;;;;;;;4.72;1.50;;;;;;;;;;4992569;28;20526;-67
2021/01/18 13:09:46;;;;;;;5.03;1.60;;;;;;;;;;5008767;28;20034;-67
2021/01/18 13:12:11;;;;;;;5.32;1.58;;;;;;;;;;5009026;28;20108;-67
2021/01/18 13:14:37;;;;;;;5.22;1.90;;;;;;;;;;5010388;28;20044;-67
2021/01/18 13:17:02;;;;;;;4.15;1.30;;;;;;;;;;5012976;28;20036;-67
2021/01/18 13:19:28;;;;;;;3.72;1.25;;;;;;;;;;5012518;28;20038;-67
2021/01/18 13:21:53;;;;;;;6.75;1.52;;;;;;;;;;4992451;28;20560;-67
2021/01/18 13:24:20;;;;;;;5.90;2.38;;;;;;;;;;5006926;28;20042;-67
2021/01/18 13:26:45;;;;;;;4.35;1.48;;;;;;;;;;5009912;28;20061;-67
2021/01/18 13:29:10;;;;;;;4.53;2.40;;;;;;;;;;5007967;28;20042;-68
2021/01/18 13:31:45;;;;;;;5.03;2.00;;;;;;;;;;5008692;28;20611;-68
2021/01/18 13:34:10;;;;;;;4.25;1.30;;;;;;;;;;5009893;28;20034;-69
2021/01/18 13:36:36;;;;;;;4.47;1.52;;;;;;;;;;4996332;28;20400;-69
2021/01/18 13:39:02;;;;;;;4.72;1.35;;;;;;;;;;5012305;28;20084;-69
2021/01/18 13:41:27;;;;;;;4.03;1.65;;;;;;;;;;5013904;28;20374;-69
2021/01/18 13:43:53;;;;;;;3.78;1.17;;;;;;;;;;5012111;28;20030;-69
2021/01/18 13:46:20;;;;;;;2.78;1.20;;;;;;;;;;5013790;28;20095;-69
2021/01/18 13:48:46;;;;;;;3.90;1.40;;;;;;;;;;5013182;28;20030;-69
2021/01/18 13:51:15;;;;;;;3.30;1.10;;;;;;;;;;5013556;28;20030;-69
2021/01/18 13:53:40;;;;;;;2.78;1.17;;;;;;;;;;5013523;28;20057;-69
2021/01/18 13:56:06;;;;;;;3.40;1.00;;;;;;;;;;5012317;28;20098;-69
2021/01/18 13:58:32;;;;;;;3.85;1.20;;;;;;;;;;5013004;28;20034;-69
2021/01/18 14:00:57;;;;;;;4.18;1.50;;;;;;;;;;4977791;28;20029;-69
2021/01/18 14:03:22;;;;;;;5.05;1.60;;;;;;;;;;5014822;28;20140;-69
2021/01/18 14:05:48;;;;;;;3.95;1.15;;;;;;;;;;5012242;28;20034;-69
2021/01/18 14:08:13;;;;;;;5.00;1.40;;;;;;;;;;5013320;28;20065;-69
2021/01/18 14:10:38;;;;;;;5.18;1.52;;;;;;;;;;5011228;28;20040;-68
2021/01/18 14:13:04;;;;;;;5.20;1.85;;;;;;;;;;5012883;28;20044;-68
2021/01/18 14:15:30;;;;;;;5.03;1.45;;;;;;;;;;5015587;28;20026;-68
2021/01/18 14:17:55;;;;;;;3.38;1.40;;;;;;;;;;5014858;28;20156;-68
2021/01/18 14:20:21;;;;;;;4.50;1.65;;;;;;;;;;5013448;28;20061;-68
2021/01/18 14:22:46;;;;;;;5.22;1.70;;;;;;;;;;4996973;28;20030;-68
2021/01/18 14:25:12;;;;;;;4.55;1.40;;;;;;;;;;5013316;28;20030;-68
2021/01/18 14:27:44;;;;;;;4.70;1.40;;;;;;;;;;4979424;28;20034;-68
2021/01/18 14:30:10;;;;;;;3.22;1.20;;;;;;;;;;5020287;28;20033;-68
2021/01/18 14:32:35;;;;;;;9.93;2.88;;;;;;;;;;5014577;28;20030;-68
2021/01/18 14:35:01;;;;;;;4.90;1.73;;;;;;;;;;4998562;28;20071;-68
2021/01/18 14:37:26;;;;;;;3.03;1.30;;;;;;;;;;5017718;28;20550;-68
2021/01/18 14:39:52;;;;;;;3.88;1.58;;;;;;;;;;5013153;28;20025;-68
2021/01/18 14:42:17;;;;;;;3.88;1.40;;;;;;;;;;5014042;28;20040;-68
2021/01/18 14:44:43;;;;;;;3.95;2.00;;;;;;;;;;5012769;28;20388;-68
2021/01/18 14:47:08;;;;;;;3.53;1.33;;;;;;;;;;5013633;28;20121;-68
2021/01/18 14:49:35;;;;;;;4.50;1.85;;;;;;;;;;4996714;28;20037;-68
2021/01/18 14:52:01;;;;;;;4.78;1.45;;;;;;;;;;5012945;28;20498;-68
2021/01/18 14:54:26;;;;;;;4.05;1.60;;;;;;;;;;4997749;28;20065;-68